createdAt,value
2018-01-27T00:00:36.355Z,0
2018-01-27T00:01:50.547Z,0
2018-01-27T00:02:36.697Z,0
2018-01-27T00:03:35.639Z,0
2018-01-27T00:04:36.591Z,0
2018-01-27T00:05:35.932Z,0
2018-01-27T00:06:36.210Z,0
2018-01-27T00:07:51.310Z,0
2018-01-27T00:08:35.754Z,0
2018-01-27T00:09:36.650Z,0
2018-01-27T00:10:36.675Z,0
2018-01-27T00:11:36.561Z,0
2018-01-27T00:12:36.550Z,0
2018-01-27T00:13:36.489Z,0
2018-01-27T00:14:36.728Z,0
2018-01-27T00:15:36.369Z,0
2018-01-27T00:16:36.658Z,0
2018-01-27T00:17:36.170Z,0
2018-01-27T00:18:36.774Z,0
2018-01-27T00:19:36.442Z,0
2018-01-27T00:20:36.858Z,0
2018-01-27T00:23:36.504Z,0
2018-01-27T00:24:36.772Z,0
2018-01-27T00:25:36.769Z,0
2018-01-27T00:26:36.726Z,0
2018-01-27T00:27:36.668Z,0
2018-01-27T00:28:36.804Z,0
2018-01-27T00:29:36.624Z,0
2018-01-27T00:30:36.905Z,0
2018-01-27T00:31:37.099Z,0
2018-01-27T00:32:36.951Z,0
2018-01-27T00:33:36.958Z,0
2018-01-27T00:34:37.116Z,0
2018-01-27T00:35:36.999Z,0
2018-01-27T00:36:36.728Z,0
2018-01-27T00:37:37.186Z,0
2018-01-27T00:38:36.988Z,0
2018-01-27T00:39:51.467Z,0
2018-01-27T00:40:36.808Z,0
2018-01-27T00:41:37.253Z,0
2018-01-27T00:42:36.590Z,0
2018-01-27T00:43:37.030Z,0
2018-01-27T00:44:37.125Z,0
2018-01-27T00:45:36.742Z,0
2018-01-27T00:47:36.950Z,0
2018-01-27T00:48:37.334Z,0
2018-01-27T00:50:51.932Z,0
2018-01-27T00:51:36.863Z,0
2018-01-27T00:52:37.303Z,0
2018-01-27T00:53:37.317Z,0
2018-01-27T00:54:51.979Z,0
2018-01-27T00:55:37.350Z,0
2018-01-27T00:56:37.194Z,0
2018-01-27T00:57:37.550Z,0
2018-01-27T00:58:52.229Z,0
2018-01-27T00:59:37.139Z,0
2018-01-27T01:00:52.106Z,0
2018-01-27T01:01:37.195Z,0
2018-01-27T01:03:06.890Z,0
2018-01-27T01:03:37.496Z,0
2018-01-27T01:04:37.373Z,0
2018-01-27T01:05:37.529Z,0
2018-01-27T01:06:37.534Z,0
2018-01-27T01:07:52.382Z,0
2018-01-27T01:08:52.149Z,0
2018-01-27T01:09:37.478Z,0
2018-01-27T01:10:52.283Z,0
2018-01-27T01:11:37.117Z,0
2018-01-27T01:12:37.414Z,0
2018-01-27T01:13:52.442Z,0
2018-01-27T01:14:37.728Z,0
2018-01-27T01:15:37.189Z,0
2018-01-27T01:16:37.702Z,0
2018-01-27T01:17:52.430Z,0
2018-01-27T01:18:37.820Z,0
2018-01-27T01:20:37.549Z,0
2018-01-27T01:21:37.891Z,0
2018-01-27T01:22:37.984Z,0
2018-01-27T01:23:37.835Z,0
2018-01-27T01:24:38.015Z,0
2018-01-27T01:25:37.637Z,0
2018-01-27T01:26:52.485Z,0
2018-01-27T01:27:38.110Z,0
2018-01-27T01:28:37.425Z,0
2018-01-27T01:29:52.627Z,0
2018-01-27T01:30:37.695Z,0
2018-01-27T01:31:37.746Z,0
2018-01-27T01:32:37.791Z,0
2018-01-27T01:33:37.913Z,0
2018-01-27T01:34:37.796Z,0
2018-01-27T01:35:52.729Z,0
2018-01-27T01:36:38.081Z,0
2018-01-27T01:37:38.239Z,0
2018-01-27T01:38:52.795Z,0
2018-01-27T01:39:38.136Z,0
2018-01-27T01:40:52.570Z,0
2018-01-27T01:41:38.203Z,0
2018-01-27T01:42:52.862Z,0
2018-01-27T01:43:38.204Z,0
2018-01-27T01:44:37.812Z,0
2018-01-27T01:45:38.269Z,0
2018-01-27T01:46:38.375Z,0
2018-01-27T01:47:38.432Z,0
2018-01-27T01:48:38.316Z,0
2018-01-27T01:49:38.284Z,0
2018-01-27T01:50:38.526Z,0
2018-01-27T01:51:38.426Z,0
2018-01-27T01:52:52.777Z,0
2018-01-27T01:53:53.069Z,0
2018-01-27T01:54:38.150Z,0
2018-01-27T01:55:38.176Z,0
2018-01-27T01:56:38.584Z,0
2018-01-27T01:57:52.971Z,0
2018-01-27T01:58:38.591Z,0
2018-01-27T01:59:52.911Z,0
2018-01-27T02:00:38.663Z,0
2018-01-27T02:01:38.287Z,0
2018-01-27T02:02:52.969Z,0
2018-01-27T02:03:38.411Z,0
2018-01-27T02:04:38.486Z,0
2018-01-27T02:05:38.610Z,0
2018-01-27T02:06:53.044Z,0
2018-01-27T02:07:38.636Z,0
2018-01-27T02:08:38.423Z,0
2018-01-27T02:09:38.759Z,0
2018-01-27T02:10:53.529Z,0
2018-01-27T02:11:38.481Z,0
2018-01-27T02:12:53.552Z,0
2018-01-27T02:13:38.840Z,0
2018-01-27T02:14:38.855Z,0
2018-01-27T02:15:38.799Z,0
2018-01-27T02:16:38.570Z,0
2018-01-27T02:17:38.717Z,0
2018-01-27T02:18:38.841Z,0
2018-01-27T02:19:38.563Z,0
2018-01-27T02:20:38.609Z,0
2018-01-27T02:21:38.632Z,0
2018-01-27T02:22:53.588Z,0
2018-01-27T02:23:38.935Z,0
2018-01-27T02:24:53.705Z,0
2018-01-27T02:25:38.719Z,0
2018-01-27T02:27:53.637Z,0
2018-01-27T02:28:39.006Z,0
2018-01-27T02:29:53.707Z,0
2018-01-27T02:30:39.156Z,0
2018-01-27T02:31:39.228Z,0
2018-01-27T02:33:53.780Z,0
2018-01-27T02:34:38.851Z,0
2018-01-27T02:36:39.319Z,0
2018-01-27T02:37:39.174Z,0
2018-01-27T02:39:53.881Z,0
2018-01-27T02:40:39.389Z,0
2018-01-27T02:41:38.731Z,0
2018-01-27T02:42:53.957Z,0
2018-01-27T02:43:39.027Z,0
2018-01-27T02:44:54.124Z,0
2018-01-27T02:45:54.232Z,0
2018-01-27T02:46:39.333Z,0
2018-01-27T02:47:39.373Z,0
2018-01-27T02:48:39.124Z,0
2018-01-27T02:49:39.529Z,0
2018-01-27T02:51:38.642Z,0
2018-01-27T02:52:39.633Z,0
2018-01-27T02:53:39.616Z,0
2018-01-27T02:54:54.146Z,0
2018-01-27T02:55:39.525Z,0
2018-01-27T02:56:39.294Z,0
2018-01-27T02:57:39.517Z,0
2018-01-27T02:58:39.520Z,0
2018-01-27T02:59:39.306Z,0
2018-01-27T03:00:39.074Z,0
2018-01-27T03:01:54.284Z,0
2018-01-27T03:02:39.591Z,0
2018-01-27T03:03:39.801Z,0
2018-01-27T03:04:39.377Z,0
2018-01-27T03:05:54.074Z,0
2018-01-27T03:08:39.315Z,0
2018-01-27T03:09:54.260Z,0
2018-01-27T03:10:39.747Z,0
2018-01-27T03:11:39.677Z,0
2018-01-27T03:12:39.550Z,0
2018-01-27T03:13:54.480Z,0
2018-01-27T03:14:39.575Z,0
2018-01-27T03:17:54.776Z,0
2018-01-27T03:18:40.041Z,0
2018-01-27T03:19:40.046Z,0
2018-01-27T03:20:39.942Z,0
2018-01-27T03:21:39.960Z,0
2018-01-27T03:22:39.964Z,0
2018-01-27T03:23:40.007Z,0
2018-01-27T03:24:39.893Z,0
2018-01-27T03:25:39.690Z,0
2018-01-27T03:26:39.797Z,0
2018-01-27T03:27:54.723Z,0
2018-01-27T03:28:40.070Z,0
2018-01-27T03:29:39.933Z,0
2018-01-27T03:31:39.611Z,0
2018-01-27T03:33:40.173Z,0
2018-01-27T03:34:40.041Z,0
2018-01-27T03:35:40.215Z,0
2018-01-27T03:36:39.966Z,0
2018-01-27T03:37:39.726Z,0
2018-01-27T03:38:54.677Z,0
2018-01-27T03:39:40.000Z,0
2018-01-27T03:40:40.038Z,0
2018-01-27T03:41:40.208Z,0
2018-01-27T03:42:39.886Z,0
2018-01-27T03:43:40.357Z,0
2018-01-27T03:44:40.495Z,0
2018-01-27T03:45:40.117Z,0
2018-01-27T03:47:40.393Z,0
2018-01-27T03:48:40.585Z,0
2018-01-27T03:49:54.885Z,0
2018-01-27T03:50:40.570Z,0
2018-01-27T03:51:40.382Z,0
2018-01-27T03:52:40.511Z,0
2018-01-27T03:53:40.016Z,0
2018-01-27T03:54:40.636Z,0
2018-01-27T03:55:40.557Z,0
2018-01-27T03:56:40.585Z,0
2018-01-27T03:57:40.095Z,0
2018-01-27T03:58:40.360Z,0
2018-01-27T03:59:40.803Z,0
2018-01-27T04:00:55.323Z,0
2018-01-27T04:01:40.675Z,0
2018-01-27T04:02:40.697Z,0
2018-01-27T04:03:40.193Z,0
2018-01-27T04:04:55.551Z,0
2018-01-27T04:05:40.571Z,0
2018-01-27T04:06:40.247Z,0
2018-01-27T04:07:55.286Z,0
2018-01-27T04:08:40.307Z,0
2018-01-27T04:09:40.822Z,0
2018-01-27T04:10:40.898Z,0
2018-01-27T04:11:40.987Z,0
2018-01-27T04:12:55.258Z,0
2018-01-27T04:13:40.993Z,0
2018-01-27T04:14:40.643Z,0
2018-01-27T04:15:40.908Z,0
2018-01-27T04:16:55.766Z,0
2018-01-27T04:17:41.067Z,0
2018-01-27T04:18:40.736Z,0
2018-01-27T04:19:41.082Z,0
2018-01-27T04:20:55.432Z,0
2018-01-27T04:21:40.954Z,0
2018-01-27T04:22:40.956Z,0
2018-01-27T04:23:40.554Z,0
2018-01-27T04:24:41.087Z,0
2018-01-27T04:25:40.837Z,0
2018-01-27T04:26:55.799Z,0
2018-01-27T04:27:41.260Z,0
2018-01-27T04:28:40.642Z,0
2018-01-27T04:30:40.930Z,0
2018-01-27T04:31:41.302Z,0
2018-01-27T04:32:41.067Z,0
2018-01-27T04:33:41.133Z,0
2018-01-27T04:34:41.248Z,0
2018-01-27T04:35:55.938Z,0
2018-01-27T04:36:55.722Z,0
2018-01-27T04:37:40.556Z,0
2018-01-27T04:38:41.486Z,0
2018-01-27T04:39:41.094Z,0
2018-01-27T04:40:41.095Z,0
2018-01-27T04:41:41.319Z,0
2018-01-27T04:42:56.092Z,0
2018-01-27T04:43:41.162Z,0
2018-01-27T04:44:41.156Z,0
2018-01-27T04:45:41.445Z,0
2018-01-27T04:46:56.153Z,0
2018-01-27T04:47:41.225Z,0
2018-01-27T04:48:41.668Z,0
2018-01-27T04:49:40.992Z,0
2018-01-27T04:50:41.283Z,0
2018-01-27T04:51:56.240Z,0
2018-01-27T04:52:56.414Z,0
2018-01-27T04:53:41.607Z,0
2018-01-27T04:54:41.619Z,0
2018-01-27T04:55:41.618Z,0
2018-01-27T04:56:41.408Z,0
2018-01-27T04:57:41.484Z,0
2018-01-27T04:58:41.689Z,0
2018-01-27T04:59:41.745Z,0
2018-01-27T05:00:41.456Z,0
2018-01-27T05:02:11.094Z,0
2018-01-27T05:02:56.316Z,0
2018-01-27T05:03:56.586Z,0
2018-01-27T05:04:41.684Z,0
2018-01-27T05:05:56.627Z,0
2018-01-27T05:06:41.554Z,0
2018-01-27T05:07:56.250Z,0
2018-01-27T05:08:56.272Z,0
2018-01-27T05:09:41.699Z,0
2018-01-27T05:10:42.066Z,0
2018-01-27T05:11:41.661Z,0
2018-01-27T05:12:41.924Z,0
2018-01-27T05:14:56.374Z,0
2018-01-27T05:15:42.247Z,0
2018-01-27T05:16:42.137Z,0
2018-01-27T05:17:42.032Z,0
2018-01-27T05:18:56.697Z,0
2018-01-27T05:19:41.797Z,0
2018-01-27T05:20:42.160Z,0
2018-01-27T05:22:41.872Z,0
2018-01-27T05:23:42.004Z,0
2018-01-27T05:24:41.874Z,0
2018-01-27T05:25:42.171Z,0
2018-01-27T05:26:42.013Z,0
2018-01-27T05:27:42.103Z,0
2018-01-27T05:28:42.102Z,0
2018-01-27T05:29:42.240Z,0
2018-01-27T05:30:42.221Z,0
2018-01-27T05:31:41.762Z,0
2018-01-27T05:32:42.372Z,0
2018-01-27T05:33:41.536Z,0
2018-01-27T05:34:42.218Z,0
2018-01-27T05:35:42.425Z,0
2018-01-27T05:36:57.003Z,0
2018-01-27T05:37:42.283Z,0
2018-01-27T05:39:57.074Z,0
2018-01-27T05:40:42.547Z,0
2018-01-27T05:41:42.333Z,0
2018-01-27T05:42:42.431Z,0
2018-01-27T05:44:42.303Z,0
2018-01-27T05:45:57.150Z,0
2018-01-27T05:46:57.348Z,0
2018-01-27T05:47:57.203Z,0
2018-01-27T05:48:57.228Z,0
2018-01-27T05:49:57.402Z,0
2018-01-27T05:50:42.593Z,0
2018-01-27T05:51:42.251Z,0
2018-01-27T05:52:42.625Z,0
2018-01-27T05:53:42.647Z,0
2018-01-27T05:54:42.845Z,0
2018-01-27T05:55:57.216Z,0
2018-01-27T05:56:42.197Z,0
2018-01-27T05:57:42.710Z,0
2018-01-27T05:58:42.501Z,0
2018-01-27T05:59:42.639Z,0
2018-01-27T06:00:42.761Z,0
2018-01-27T06:01:57.360Z,0
2018-01-27T06:02:42.839Z,0
2018-01-27T06:03:42.549Z,0
2018-01-27T06:04:42.579Z,0
2018-01-27T06:06:57.570Z,0
2018-01-27T06:07:57.697Z,0
2018-01-27T06:08:42.936Z,0
2018-01-27T06:09:42.687Z,0
2018-01-27T06:10:57.500Z,0
2018-01-27T06:11:57.656Z,0
2018-01-27T06:12:43.220Z,0
2018-01-27T06:13:43.001Z,0
2018-01-27T06:14:43.004Z,0
2018-01-27T06:15:43.022Z,0
2018-01-27T06:16:43.199Z,0
2018-01-27T06:17:42.953Z,0
2018-01-27T06:18:42.834Z,0
2018-01-27T06:19:57.768Z,0
2018-01-27T06:20:42.851Z,0
2018-01-27T06:21:43.033Z,0
2018-01-27T06:22:43.294Z,0
2018-01-27T06:23:43.010Z,0
2018-01-27T06:24:57.947Z,0
2018-01-27T06:25:43.232Z,0
2018-01-27T06:26:43.233Z,0
2018-01-27T06:28:42.872Z,0
2018-01-27T06:29:57.933Z,0
2018-01-27T06:30:43.034Z,0
2018-01-27T06:31:43.310Z,0
2018-01-27T06:32:43.499Z,0
2018-01-27T06:33:43.265Z,0
2018-01-27T06:34:58.146Z,0
2018-01-27T06:36:43.138Z,0
2018-01-27T06:37:43.571Z,0
2018-01-27T06:38:43.257Z,0
2018-01-27T06:39:43.653Z,0
2018-01-27T06:40:43.293Z,0
2018-01-27T06:41:43.246Z,0
2018-01-27T06:42:57.909Z,0
2018-01-27T06:43:43.661Z,0
2018-01-27T06:44:43.552Z,0
2018-01-27T06:45:58.425Z,0
2018-01-27T06:46:43.421Z,0
2018-01-27T06:47:43.344Z,0
2018-01-27T06:48:43.746Z,0
2018-01-27T06:49:43.371Z,0
2018-01-27T06:50:43.646Z,0
2018-01-27T06:51:43.568Z,0
2018-01-27T06:52:43.414Z,0
2018-01-27T06:53:43.448Z,0
2018-01-27T06:54:43.858Z,0
2018-01-27T06:55:43.577Z,0
2018-01-27T06:56:43.952Z,0
2018-01-27T06:57:43.779Z,0
2018-01-27T06:58:43.771Z,0
2018-01-27T06:59:43.898Z,0
2018-01-27T07:00:58.243Z,0
2018-01-27T07:01:43.729Z,0
2018-01-27T07:02:43.359Z,0
2018-01-27T07:03:43.862Z,0
2018-01-27T07:04:43.744Z,0
2018-01-27T07:05:43.741Z,0
2018-01-27T07:06:43.669Z,0
2018-01-27T07:07:58.661Z,0
2018-01-27T07:08:43.458Z,0
2018-01-27T07:09:44.092Z,0
2018-01-27T07:10:43.834Z,0
2018-01-27T07:11:44.018Z,0
2018-01-27T07:12:43.947Z,0
2018-01-27T07:13:43.802Z,0
2018-01-27T07:14:58.785Z,0
2018-01-27T07:15:44.194Z,0
2018-01-27T07:16:44.076Z,0
2018-01-27T07:17:43.851Z,0
2018-01-27T07:18:58.823Z,0
2018-01-27T07:19:44.151Z,0
2018-01-27T07:20:58.829Z,0
2018-01-27T07:21:44.087Z,0
2018-01-27T07:22:43.944Z,0
2018-01-27T07:23:44.493Z,0
2018-01-27T07:24:43.893Z,0
2018-01-27T07:25:44.000Z,5
2018-01-27T07:26:58.715Z,5
2018-01-27T07:27:44.032Z,5
2018-01-27T07:28:44.330Z,5
2018-01-27T07:29:44.343Z,5
2018-01-27T07:30:59.022Z,5
2018-01-27T07:31:44.107Z,5
2018-01-27T07:32:44.133Z,5
2018-01-27T07:33:44.168Z,5
2018-01-27T07:34:44.410Z,5
2018-01-27T07:35:44.602Z,5
2018-01-27T07:36:43.933Z,5
2018-01-27T07:37:44.490Z,5
2018-01-27T07:38:44.493Z,5
2018-01-27T07:39:44.410Z,5
2018-01-27T07:41:44.044Z,5
2018-01-27T07:42:59.245Z,5
2018-01-27T07:43:44.322Z,5
2018-01-27T07:44:59.260Z,5
2018-01-27T07:45:44.754Z,5
2018-01-27T07:46:59.305Z,5
2018-01-27T07:47:44.644Z,5
2018-01-27T07:48:44.414Z,5
2018-01-27T07:49:44.410Z,5
2018-01-27T07:50:44.465Z,5
2018-01-27T07:51:59.652Z,10
2018-01-27T07:52:44.796Z,10
2018-01-27T07:53:44.485Z,10
2018-01-27T07:54:44.519Z,10
2018-01-27T07:55:44.801Z,10
2018-01-27T07:56:44.812Z,10
2018-01-27T07:57:44.970Z,10
2018-01-27T07:58:59.550Z,10
2018-01-27T07:59:59.438Z,10
2018-01-27T08:00:44.370Z,10
2018-01-27T08:01:44.902Z,10
2018-01-27T08:02:59.565Z,10
2018-01-27T08:03:45.039Z,10
2018-01-27T08:04:44.433Z,10
2018-01-27T08:05:45.111Z,10
2018-01-27T08:06:44.706Z,10
2018-01-27T08:07:44.996Z,10
2018-01-27T08:08:45.165Z,10
2018-01-27T08:09:44.799Z,10
2018-01-27T08:10:45.076Z,10
2018-01-27T08:12:45.025Z,15
2018-01-27T08:13:59.538Z,15
2018-01-27T08:14:59.994Z,15
2018-01-27T08:15:45.297Z,15
2018-01-27T08:16:45.171Z,15
2018-01-27T08:17:59.846Z,15
2018-01-27T08:18:44.706Z,15
2018-01-27T08:19:45.256Z,15
2018-01-27T08:20:45.237Z,15
2018-01-27T08:21:45.266Z,15
2018-01-27T08:22:45.286Z,15
2018-01-27T08:23:45.269Z,20
2018-01-27T08:24:45.053Z,20
2018-01-27T08:25:45.395Z,20
2018-01-27T08:26:59.758Z,20
2018-01-27T08:27:45.497Z,20
2018-01-27T08:28:45.382Z,20
2018-01-27T08:30:00.068Z,20
2018-01-27T08:31:45.325Z,25
2018-01-27T08:32:45.450Z,25
2018-01-27T08:33:45.617Z,25
2018-01-27T08:34:45.462Z,25
2018-01-27T08:36:00.262Z,25
2018-01-27T08:36:45.593Z,30
2018-01-27T08:37:59.689Z,30
2018-01-27T08:38:45.308Z,30
2018-01-27T08:39:45.312Z,30
2018-01-27T08:40:45.580Z,30
2018-01-27T08:41:45.748Z,35
2018-01-27T08:42:45.457Z,35
2018-01-27T08:43:45.625Z,35
2018-01-27T08:44:45.406Z,35
2018-01-27T08:45:45.668Z,35
2018-01-27T08:46:45.581Z,40
2018-01-27T08:47:45.697Z,40
2018-01-27T08:48:45.231Z,40
2018-01-27T08:50:00.429Z,40
2018-01-27T08:50:45.750Z,40
2018-01-27T08:51:45.921Z,40
2018-01-27T08:52:45.741Z,45
2018-01-27T08:53:45.816Z,45
2018-01-27T08:54:45.596Z,45
2018-01-27T08:55:45.851Z,50
2018-01-27T08:56:45.879Z,50
2018-01-27T08:57:45.928Z,50
2018-01-27T08:58:45.893Z,50
2018-01-27T08:59:45.643Z,50
2018-01-27T09:00:45.952Z,50
2018-01-27T09:02:00.379Z,50
2018-01-27T09:02:45.890Z,50
2018-01-27T09:03:45.883Z,50
2018-01-27T09:04:45.254Z,50
2018-01-27T09:06:00.786Z,55
2018-01-27T09:06:45.547Z,55
2018-01-27T09:07:46.074Z,60
2018-01-27T09:08:46.082Z,65
2018-01-27T09:09:46.109Z,65
2018-01-27T09:10:45.754Z,70
2018-01-27T09:11:46.133Z,75
2018-01-27T09:12:45.920Z,75
2018-01-27T09:13:45.686Z,75
2018-01-27T09:14:45.941Z,70
2018-01-27T09:15:46.233Z,70
2018-01-27T09:16:46.390Z,70
2018-01-27T09:17:46.342Z,75
2018-01-27T09:19:00.944Z,75
2018-01-27T09:19:46.283Z,75
2018-01-27T09:20:46.343Z,75
2018-01-27T09:22:01.133Z,80
2018-01-27T09:23:00.662Z,75
2018-01-27T09:23:46.358Z,75
2018-01-27T09:24:45.863Z,75
2018-01-27T09:25:46.543Z,75
2018-01-27T09:26:46.265Z,70
2018-01-27T09:27:45.924Z,70
2018-01-27T09:28:46.325Z,70
2018-01-27T09:29:46.454Z,65
2018-01-27T09:30:46.495Z,65
2018-01-27T09:31:46.679Z,60
2018-01-27T09:32:46.272Z,65
2018-01-27T09:33:46.705Z,65
2018-01-27T09:34:46.544Z,65
2018-01-27T09:35:46.313Z,65
2018-01-27T09:36:46.077Z,70
2018-01-27T09:38:01.017Z,70
2018-01-27T09:38:46.644Z,75
2018-01-27T09:39:46.152Z,75
2018-01-27T09:40:46.301Z,70
2018-01-27T09:41:46.666Z,70
2018-01-27T09:42:46.530Z,70
2018-01-27T09:43:46.465Z,65
2018-01-27T09:44:46.644Z,60
2018-01-27T09:46:01.352Z,55
2018-01-27T09:47:01.601Z,55
2018-01-27T09:47:46.906Z,55
2018-01-27T09:48:46.805Z,50
2018-01-27T09:49:46.598Z,50
2018-01-27T09:50:46.595Z,50
2018-01-27T09:51:46.887Z,55
2018-01-27T09:53:01.890Z,60
2018-01-27T09:54:01.343Z,55
2018-01-27T09:54:46.943Z,50
2018-01-27T09:55:46.716Z,50
2018-01-27T09:56:46.707Z,55
2018-01-27T09:57:46.723Z,55
2018-01-27T09:58:46.885Z,60
2018-01-27T09:59:46.765Z,60
2018-01-27T10:00:47.035Z,55
2018-01-27T10:02:01.476Z,55
2018-01-27T10:02:46.828Z,55
2018-01-27T10:03:47.395Z,60
2018-01-27T10:05:46.872Z,60
2018-01-27T10:06:46.895Z,65
2018-01-27T10:07:47.182Z,65
2018-01-27T10:08:47.368Z,65
2018-01-27T10:09:47.102Z,70
2018-01-27T10:10:47.329Z,70
2018-01-27T10:12:01.939Z,70
2018-01-27T10:13:01.928Z,70
2018-01-27T10:13:47.044Z,75
2018-01-27T10:14:47.198Z,75
2018-01-27T10:15:46.971Z,75
2018-01-27T10:17:02.004Z,80
2018-01-27T10:17:47.375Z,75
2018-01-27T10:18:47.418Z,75
2018-01-27T10:20:02.159Z,70
2018-01-27T10:20:47.135Z,75
2018-01-27T10:21:47.627Z,75
2018-01-27T10:22:47.611Z,75
2018-01-27T10:23:47.227Z,75
2018-01-27T10:25:01.889Z,80
2018-01-27T10:26:01.922Z,80
2018-01-27T10:26:47.455Z,80
2018-01-27T10:27:47.048Z,80
2018-01-27T10:28:47.564Z,80
2018-01-27T10:29:47.568Z,85
2018-01-27T10:31:47.798Z,85
2018-01-27T10:32:47.799Z,90
2018-01-27T10:33:47.638Z,85
2018-01-27T10:34:47.696Z,85
2018-01-27T10:35:47.436Z,85
2018-01-27T10:36:47.874Z,85
2018-01-27T10:38:02.562Z,85
2018-01-27T10:38:47.744Z,80
2018-01-27T10:39:47.783Z,80
2018-01-27T10:41:02.460Z,80
2018-01-27T10:41:47.662Z,80
2018-01-27T10:42:47.708Z,80
2018-01-27T10:44:02.367Z,85
2018-01-27T10:44:47.621Z,85
2018-01-27T10:45:48.050Z,85
2018-01-27T10:46:47.640Z,85
2018-01-27T10:47:47.923Z,90
2018-01-27T10:48:47.670Z,90
2018-01-27T10:49:48.220Z,90
2018-01-27T10:50:47.846Z,90
2018-01-27T10:51:48.100Z,90
2018-01-27T10:52:48.008Z,95
2018-01-27T10:53:48.039Z,95
2018-01-27T10:54:47.706Z,90
2018-01-27T10:57:02.900Z,85
2018-01-27T10:57:48.115Z,80
2018-01-27T10:58:48.266Z,70
2018-01-27T10:59:48.147Z,60
2018-01-27T11:00:48.289Z,55
2018-01-27T11:01:47.914Z,50
2018-01-27T11:03:02.877Z,45
2018-01-27T11:03:47.715Z,45
2018-01-27T11:05:02.393Z,40
2018-01-27T11:05:48.153Z,35
2018-01-27T11:07:03.111Z,35
2018-01-27T11:07:47.770Z,30
2018-01-27T11:08:47.808Z,30
2018-01-27T11:10:17.681Z,30
2018-01-27T11:10:48.360Z,30
2018-01-27T11:11:48.252Z,30
2018-01-27T11:13:48.627Z,30
2018-01-27T11:14:48.578Z,30
2018-01-27T11:15:48.161Z,30
2018-01-27T11:16:48.214Z,30
2018-01-27T11:17:48.386Z,30
2018-01-27T11:18:48.488Z,25
2018-01-27T11:19:48.698Z,25
2018-01-27T11:21:48.559Z,25
2018-01-27T11:22:48.721Z,25
2018-01-27T11:24:03.011Z,25
2018-01-27T11:24:48.760Z,25
2018-01-27T11:25:48.642Z,25
2018-01-27T11:26:48.376Z,25
2018-01-27T11:28:03.510Z,25
2018-01-27T11:28:48.470Z,25
2018-01-27T11:29:48.441Z,25
2018-01-27T11:30:48.631Z,25
2018-01-27T11:31:48.486Z,25
2018-01-27T11:32:48.765Z,25
2018-01-27T11:33:48.757Z,20
2018-01-27T11:34:48.802Z,20
2018-01-27T11:35:48.661Z,20
2018-01-27T11:36:48.726Z,20
2018-01-27T11:37:49.028Z,20
2018-01-27T11:38:48.933Z,20
2018-01-27T11:39:48.901Z,20
2018-01-27T11:40:48.895Z,20
2018-01-27T11:41:48.825Z,20
2018-01-27T11:42:48.689Z,20
2018-01-27T11:43:48.972Z,20
2018-01-27T11:44:48.724Z,20
2018-01-27T11:45:48.858Z,20
2018-01-27T11:46:49.184Z,20
2018-01-27T11:48:03.688Z,20
2018-01-27T11:49:03.471Z,20
2018-01-27T11:49:48.788Z,20
2018-01-27T11:50:49.234Z,20
2018-01-27T11:51:49.244Z,20
2018-01-27T11:53:03.549Z,20
2018-01-27T11:53:49.295Z,20
2018-01-27T11:54:48.913Z,20
2018-01-27T11:55:49.030Z,20
2018-01-27T11:57:03.845Z,20
2018-01-27T11:57:49.217Z,20
2018-01-27T12:00:03.697Z,20
2018-01-27T12:01:03.830Z,20
2018-01-27T12:01:49.284Z,20
2018-01-27T12:03:03.722Z,20
2018-01-27T12:03:49.231Z,20
2018-01-27T12:06:04.185Z,20
2018-01-27T12:06:49.388Z,20
2018-01-27T12:07:49.130Z,20
2018-01-27T12:08:49.471Z,20
2018-01-27T12:09:49.076Z,20
2018-01-27T12:11:03.882Z,20
2018-01-27T12:11:49.467Z,20
2018-01-27T12:12:48.985Z,20
2018-01-27T12:13:49.395Z,20
2018-01-27T12:15:04.157Z,20
2018-01-27T12:16:03.952Z,20
2018-01-27T12:16:49.282Z,20
2018-01-27T12:18:49.751Z,20
2018-01-27T12:19:49.696Z,20
2018-01-27T12:20:49.360Z,25
2018-01-27T12:22:04.218Z,25
2018-01-27T12:22:49.688Z,25
2018-01-27T12:23:49.680Z,25
2018-01-27T12:24:49.643Z,25
2018-01-27T12:25:49.473Z,25
2018-01-27T12:26:49.736Z,25
2018-01-27T12:28:04.174Z,25
2018-01-27T12:28:49.533Z,25
2018-01-27T12:29:49.700Z,25
2018-01-27T12:30:49.558Z,25
2018-01-27T12:32:49.599Z,25
2018-01-27T12:33:50.151Z,25
2018-01-27T12:34:49.878Z,25
2018-01-27T12:35:49.774Z,25
2018-01-27T12:36:49.910Z,25
2018-01-27T12:37:50.062Z,25
2018-01-27T12:38:49.429Z,25
2018-01-27T12:41:04.555Z,25
2018-01-27T12:41:49.756Z,25
2018-01-27T12:43:04.428Z,25
2018-01-27T12:44:04.566Z,25
2018-01-27T12:44:49.678Z,25
2018-01-27T12:45:49.813Z,25
2018-01-27T12:46:50.257Z,25
2018-01-27T12:48:04.809Z,25
2018-01-27T12:48:50.147Z,25
2018-01-27T12:50:04.578Z,25
2018-01-27T12:50:50.036Z,25
2018-01-27T12:51:50.486Z,25
2018-01-27T12:52:50.354Z,25
2018-01-27T12:53:50.214Z,25
2018-01-27T12:54:50.264Z,25
2018-01-27T12:55:50.262Z,25
2018-01-27T12:56:50.722Z,25
2018-01-27T12:57:50.036Z,25
2018-01-27T12:58:50.275Z,25
2018-01-27T12:59:50.076Z,25
2018-01-27T13:00:49.817Z,25
2018-01-27T13:01:50.498Z,30
2018-01-27T13:03:05.216Z,30
2018-01-27T13:03:50.152Z,30
2018-01-27T13:04:50.429Z,30
2018-01-27T13:06:50.438Z,35
2018-01-27T13:07:50.519Z,40
2018-01-27T13:08:50.224Z,45
2018-01-27T13:10:04.939Z,55
2018-01-27T13:10:50.459Z,50
2018-01-27T13:12:05.374Z,50
2018-01-27T13:12:50.573Z,50
2018-01-27T13:15:05.403Z,55
2018-01-27T13:15:50.773Z,55
2018-01-27T13:16:50.623Z,60
2018-01-27T13:17:50.670Z,60
2018-01-27T13:18:50.656Z,60
2018-01-27T13:20:05.113Z,70
2018-01-27T13:21:50.457Z,60
2018-01-27T13:22:50.492Z,80
2018-01-27T13:24:05.526Z,80
2018-01-27T13:24:50.018Z,80
2018-01-27T13:26:50.977Z,70
2018-01-27T13:27:50.963Z,65
2018-01-27T13:28:50.700Z,60
2018-01-27T13:29:50.371Z,55
2018-01-27T13:30:50.889Z,55
2018-01-27T13:31:50.894Z,55
2018-01-27T13:33:50.793Z,50
2018-01-27T13:35:20.049Z,50
2018-01-27T13:35:50.984Z,50
2018-01-27T13:36:50.988Z,50
2018-01-27T13:37:51.022Z,50
2018-01-27T13:39:05.455Z,50
2018-01-27T13:42:05.762Z,45
2018-01-27T13:42:51.123Z,45
2018-01-27T13:43:51.273Z,45
2018-01-27T13:45:05.720Z,45
2018-01-27T13:46:51.294Z,45
2018-01-27T13:47:50.705Z,45
2018-01-27T13:48:51.375Z,45
2018-01-27T13:50:06.058Z,45
2018-01-27T13:51:20.591Z,45
2018-01-27T13:51:51.119Z,45
2018-01-27T13:52:51.046Z,50
2018-01-27T13:53:51.481Z,50
2018-01-27T13:54:51.069Z,50
2018-01-27T13:56:05.764Z,50
2018-01-27T13:56:51.489Z,50
2018-01-27T13:57:51.290Z,50
2018-01-27T13:58:51.153Z,55
2018-01-27T13:59:51.568Z,65
2018-01-27T14:03:50.824Z,55
2018-01-27T14:04:51.287Z,55
2018-01-27T14:05:51.624Z,60
2018-01-27T14:07:06.213Z,60
2018-01-27T14:07:51.373Z,60
2018-01-27T14:08:51.590Z,60
2018-01-27T14:09:51.603Z,60
2018-01-27T14:10:51.651Z,60
2018-01-27T14:11:51.431Z,60
2018-01-27T14:12:51.937Z,65
2018-01-27T14:13:51.694Z,65
2018-01-27T14:14:51.704Z,65
2018-01-27T14:15:51.885Z,60
2018-01-27T14:16:51.651Z,60
2018-01-27T14:18:51.779Z,45
2018-01-27T14:20:06.465Z,45
2018-01-27T14:20:51.992Z,45
2018-01-27T14:21:51.595Z,45
2018-01-27T14:23:06.269Z,45
2018-01-27T14:23:52.024Z,45
2018-01-27T14:24:51.893Z,45
2018-01-27T14:25:51.917Z,45
2018-01-27T14:27:06.758Z,40
2018-01-27T14:27:51.946Z,40
2018-01-27T14:29:52.112Z,40
2018-01-27T14:31:06.693Z,40
2018-01-27T14:31:52.136Z,40
2018-01-27T14:33:06.687Z,35
2018-01-27T14:33:51.940Z,35
2018-01-27T14:34:51.795Z,35
2018-01-27T14:35:51.828Z,35
2018-01-27T14:36:52.003Z,35
2018-01-27T14:38:06.794Z,35
2018-01-27T14:38:52.192Z,35
2018-01-27T14:39:52.201Z,30
2018-01-27T14:40:51.912Z,30
2018-01-27T14:41:52.338Z,30
2018-01-27T14:42:52.210Z,30
2018-01-27T14:43:51.699Z,30
2018-01-27T14:44:51.999Z,25
2018-01-27T14:45:52.236Z,25
2018-01-27T14:46:52.170Z,25
2018-01-27T14:47:52.048Z,25
2018-01-27T14:49:06.984Z,20
2018-01-27T14:49:52.509Z,20
2018-01-27T14:50:52.349Z,20
2018-01-27T14:52:06.869Z,20
2018-01-27T14:52:51.778Z,15
2018-01-27T14:53:52.149Z,15
2018-01-27T14:55:07.399Z,15
2018-01-27T14:55:52.085Z,15
2018-01-27T14:56:52.455Z,15
2018-01-27T14:57:52.485Z,15
2018-01-27T14:58:52.124Z,15
2018-01-27T14:59:52.281Z,15
2018-01-27T15:01:07.201Z,10
2018-01-27T15:01:52.451Z,10
2018-01-27T15:03:06.735Z,10
2018-01-27T15:03:52.330Z,10
2018-01-27T15:05:52.111Z,10
2018-01-27T15:06:52.784Z,10
2018-01-27T15:07:51.891Z,10
2018-01-27T15:09:07.083Z,5
2018-01-27T15:10:07.155Z,5
2018-01-27T15:10:52.433Z,5
2018-01-27T15:12:06.989Z,5
2018-01-27T15:12:52.896Z,5
2018-01-27T15:14:52.774Z,5
2018-01-27T15:15:52.791Z,5
2018-01-27T15:16:52.898Z,5
2018-01-27T15:17:52.343Z,5
2018-01-27T15:18:52.617Z,5
2018-01-27T15:19:52.898Z,5
2018-01-27T15:20:52.626Z,5
2018-01-27T15:21:52.802Z,5
2018-01-27T15:22:52.911Z,5
2018-01-27T15:24:07.367Z,5
2018-01-27T15:26:07.396Z,0
2018-01-27T15:27:52.785Z,0